Time;durP1;ratioP1;P1;durP2;ratioP2;P2;SDS_P1;SDS_P2;PMS_P1;PMS_P2;Temp;Humidity;BMP_temperature;BMP_pressure;BME280_temperature;BME280_humidity;BME280_pressure;Samples;Min_cycle;Max_cycle;Signal;HPM_P1;HPM_P2
2023/12/24 00:01:28;;;;;;;;;;;;;;;4.24;74.28;98728.34;4373116;32;33677;-90
2023/12/24 00:03:56;;;;;;;;;;;;;;;3.94;75.02;98722.47;4368851;32;33603;-89
2023/12/24 00:06:25;;;;;;;;;;;;;;;4.06;75.08;98734.41;4373921;32;35023;-90
2023/12/24 00:08:54;;;;;;;;;;;;;;;4.17;74.32;98742.06;4365899;32;34659;-88
2023/12/24 00:11:23;;;;;;;;;;;;;;;4.11;74.77;98736.94;4357641;32;32891;-89
2023/12/24 00:13:54;;;;;;;;;;;;;;;4.01;75.60;98738.66;4368886;32;34350;-88
2023/12/24 00:16:27;;;;;;;;;;;;;;;4.11;75.22;98735.25;4366732;32;34524;-89
2023/12/24 00:18:57;;;;;;;;;;;;;;;4.34;74.04;98747.16;4374161;32;32594;-89
2023/12/24 00:21:28;;;;;;;;;;;;;;;4.25;74.25;98742.87;4369693;32;33774;-89
2023/12/24 00:23:57;;;;;;;;;;;;;;;4.27;74.29;98744.59;4368412;32;33649;-90
2023/12/24 00:26:25;;;;;;;;;;;;;;;4.13;74.71;98754.06;4368838;32;34279;-90
2023/12/24 00:29:00;;;;;;;;;;;;;;;4.20;74.14;98750.59;4374412;32;32829;-89
2023/12/24 00:31:32;;;;;;;;;;;;;;;4.14;74.68;98752.34;4370964;32;33787;-90
2023/12/24 00:34:02;;;;;;;;;;;;;;;4.20;74.24;98754.88;4356378;32;33331;-89
2023/12/24 00:36:37;;;;;;;;;;;;;;;4.09;74.54;98751.53;4370845;32;33997;-89
2023/12/24 00:39:06;;;;;;;;;;;;;;;4.00;74.97;98750.66;4371607;32;33204;-90
2023/12/24 00:41:34;;;;;;;;;;;;;;;4.16;74.59;98760.91;4371172;32;34447;-89
2023/12/24 00:44:03;;;;;;;;;;;;;;;4.10;74.56;98756.63;4363215;32;33996;-89
2023/12/24 00:46:32;;;;;;;;;;;;;;;4.03;74.69;98762.62;4364494;32;34290;-90
2023/12/24 00:49:06;;;;;;;;;;;;;;;4.21;74.46;98756.63;4371960;32;33520;-90
2023/12/24 00:51:41;;;;;;;;;;;;;;;4.21;74.31;98778.00;4376146;32;33678;-90
2023/12/24 00:54:09;;;;;;;;;;;;;;;4.35;73.37;98784.81;4374460;32;33787;-90
2023/12/24 00:56:41;;;;;;;;;;;;;;;4.17;73.94;98780.56;4370311;32;33689;-90
2023/12/24 00:59:09;;;;;;;;;;;;;;;4.23;74.11;98794.25;4370575;32;33258;-89
2023/12/24 01:01:40;;;;;;;;;;;;;;;4.15;74.72;98795.97;4371922;32;32225;-89
2023/12/24 01:04:10;;;;;;;;;;;;;;;4.23;74.19;98790.84;4375931;32;33548;-91
2023/12/24 01:06:40;;;;;;;;;;;;;;;4.24;74.17;98793.38;4370576;32;33943;-89
2023/12/24 01:09:13;;;;;;;;;;;;;;;4.21;74.44;98800.25;4370417;32;33470;-90
2023/12/24 01:11:42;;;;;;;;;;;;;;;4.31;74.25;98801.09;4371787;32;34108;-89
2023/12/24 01:14:12;;;;;;;;;;;;;;;4.24;74.11;98800.25;4373355;32;33820;-89
2023/12/24 01:16:47;;;;;;;;;;;;;;;4.25;74.53;98789.97;4375608;32;34099;-88
2023/12/24 01:19:17;;;;;;;;;;;;;;;4.23;74.49;98803.69;4371512;32;33302;-88
2023/12/24 01:21:50;;;;;;;;;;;;;;;4.22;74.71;98800.22;4369946;32;33306;-88
2023/12/24 01:24:19;;;;;;;;;;;;;;;4.28;74.51;98789.13;4370497;32;34846;-88
2023/12/24 01:26:49;;;;;;;;;;;;;;;4.31;74.32;98801.94;4375891;32;35586;-89
2023/12/24 01:29:17;;;;;;;;;;;;;;;4.37;74.21;98806.19;4361233;32;33657;-89
2023/12/24 01:31:54;;;;;;;;;;;;;;;4.34;74.37;98794.22;4375007;32;33851;-89
2023/12/24 01:34:24;;;;;;;;;;;;;;;4.32;74.28;98801.06;4370409;32;34223;-88
2023/12/24 01:37:00;;;;;;;;;;;;;;;4.12;75.03;98801.12;4370370;32;33406;-89
2023/12/24 01:39:29;;;;;;;;;;;;;;;4.09;75.86;98806.25;4368242;32;32464;-90
2023/12/24 01:41:58;;;;;;;;;;;;;;;4.45;74.57;98812.19;4373486;32;33534;-89
2023/12/24 01:44:27;;;;;;;;;;;;;;;4.66;73.08;98812.13;4371267;32;33646;-89
2023/12/24 01:46:56;;;;;;;;;;;;;;;4.55;73.49;98805.31;4370016;32;33786;-89
2023/12/24 01:49:26;;;;;;;;;;;;;;;4.45;73.63;98819.91;4375609;32;33486;-90
2023/12/24 01:51:56;;;;;;;;;;;;;;;4.65;72.78;98817.25;4372267;32;33955;-90
2023/12/24 01:54:24;;;;;;;;;;;;;;;4.18;75.03;98805.37;4369668;32;34833;-89
2023/12/24 01:56:54;;;;;;;;;;;;;;;4.31;74.77;98807.06;4366660;32;33819;-89
2023/12/24 01:59:23;;;;;;;;;;;;;;;4.20;75.13;98801.09;4368816;32;32856;-89
2023/12/24 02:01:54;;;;;;;;;;;;;;;4.38;74.48;98806.22;4375416;32;34789;-85
2023/12/24 02:04:28;;;;;;;;;;;;;;;4.55;73.59;98806.16;4364419;32;33739;-85
2023/12/24 02:07:03;;;;;;;;;;;;;;;4.21;74.66;98798.53;4360514;32;35008;-86
2023/12/24 02:09:31;;;;;;;;;;;;;;;4.43;74.09;98793.34;4370140;32;33422;-85
2023/12/24 02:12:05;;;;;;;;;;;;;;;4.45;74.18;98799.34;4375733;32;34501;-86
2023/12/24 02:14:34;;;;;;;;;;;;;;;4.37;74.18;98796.78;4375544;32;34895;-86
2023/12/24 02:17:05;;;;;;;;;;;;;;;4.44;74.11;98798.47;4370329;32;33580;-86
2023/12/24 02:19:35;;;;;;;;;;;;;;;4.27;74.97;98816.47;4372920;32;32785;-86
2023/12/24 02:22:05;;;;;;;;;;;;;;;4.45;74.33;98812.19;4371821;32;33442;-86
2023/12/24 02:24:34;;;;;;;;;;;;;;;4.41;74.15;98811.31;4375558;32;33555;-87
2023/12/24 02:27:11;;;;;;;;;;;;;;;4.52;74.07;98818.13;4370418;32;34585;-86
2023/12/24 02:29:44;;;;;;;;;;;;;;;4.48;73.96;98823.28;4361005;32;32817;-86
2023/12/24 02:32:16;;;;;;;;;;;;;;;4.49;73.87;98819.00;4372436;32;34469;-86
2023/12/24 02:34:48;;;;;;;;;;;;;;;4.56;73.68;98824.97;4370217;32;34331;-86
2023/12/24 02:37:18;;;;;;;;;;;;;;;4.37;74.27;98822.44;4375397;32;34021;-85
2023/12/24 02:39:50;;;;;;;;;;;;;;;4.57;73.58;98811.31;4370405;32;33218;-85
2023/12/24 02:42:19;;;;;;;;;;;;;;;4.60;73.12;98814.69;4371668;32;33527;-86
2023/12/24 02:44:54;;;;;;;;;;;;;;;4.58;73.19;98818.97;4369435;32;33231;-85
2023/12/24 02:47:23;;;;;;;;;;;;;;;4.42;73.67;98814.75;4375502;32;34318;-84
2023/12/24 02:49:54;;;;;;;;;;;;;;;4.58;73.09;98821.56;4372915;32;32959;-85
2023/12/24 02:52:24;;;;;;;;;;;;;;;4.48;73.76;98823.28;4370030;32;34392;-85
2023/12/24 02:54:54;;;;;;;;;;;;;;;4.41;73.56;98820.75;4363511;32;34384;-84
2023/12/24 02:57:23;;;;;;;;;;;;;;;4.56;73.52;98820.69;4366205;32;34068;-85
2023/12/24 02:59:52;;;;;;;;;;;;;;;4.39;74.31;98822.47;4374955;32;32809;-84
2023/12/24 03:02:23;;;;;;;;;;;;;;;4.48;73.46;98820.72;4365002;32;34011;-84
2023/12/24 03:04:55;;;;;;;;;;;;;;;4.45;73.98;98819.91;4369803;32;34125;-83
2023/12/24 03:07:30;;;;;;;;;;;;;;;4.37;74.56;98812.19;4370105;32;33485;-84
2023/12/24 03:09:59;;;;;;;;;;;;;;;4.60;73.61;98813.84;4375092;32;32941;-85
2023/12/24 03:12:28;;;;;;;;;;;;;;;4.76;73.20;98817.19;4375009;32;33699;-86
2023/12/24 03:14:56;;;;;;;;;;;;;;;4.46;73.91;98807.03;4369616;32;33818;-85
2023/12/24 03:17:28;;;;;;;;;;;;;;;4.53;74.06;98807.88;4359737;32;33592;-83
2023/12/24 03:20:00;;;;;;;;;;;;;;;4.78;73.19;98813.75;4374523;32;33516;-85
2023/12/24 03:22:29;;;;;;;;;;;;;;;4.59;73.92;98820.72;4375118;32;33712;-84
2023/12/24 03:24:59;;;;;;;;;;;;;;;4.46;74.46;98812.16;4369391;32;33390;-84
2023/12/24 03:27:34;;;;;;;;;;;;;;;4.44;74.45;98816.44;4369414;32;33808;-85
2023/12/24 03:30:06;;;;;;;;;;;;;;;4.49;74.04;98811.28;4372192;32;32956;-85
2023/12/24 03:32:34;;;;;;;;;;;;;;;4.64;73.63;98816.41;4369330;32;33777;-84
2023/12/24 03:35:09;;;;;;;;;;;;;;;4.68;73.73;98818.09;4375142;32;34962;-84
2023/12/24 03:37:37;;;;;;;;;;;;;;;4.63;73.94;98818.97;4369672;32;34673;-85
2023/12/24 03:40:12;;;;;;;;;;;;;;;4.48;74.41;98804.47;4359993;32;33182;-83
2023/12/24 03:42:41;;;;;;;;;;;;;;;4.64;73.58;98821.53;4368859;32;34754;-83
2023/12/24 03:45:12;;;;;;;;;;;;;;;4.51;74.21;98819.00;4374891;32;33769;-83
2023/12/24 03:47:41;;;;;;;;;;;;;;;4.67;73.59;98821.53;4369930;32;33692;-85
2023/12/24 03:50:12;;;;;;;;;;;;;;;4.63;73.62;98819.81;4370616;32;33621;-83
2023/12/24 03:52:41;;;;;;;;;;;;;;;4.74;73.57;98824.09;4368961;32;33702;-85
2023/12/24 03:55:11;;;;;;;;;;;;;;;4.61;74.05;98826.66;4367042;32;34012;-85
2023/12/24 03:57:39;;;;;;;;;;;;;;;4.81;73.13;98824.06;4374073;32;34735;-84
2023/12/24 04:00:14;;;;;;;;;;;;;;;4.69;73.94;98827.53;4369841;32;32750;-83
2023/12/24 04:02:45;;;;;;;;;;;;;;;4.65;73.98;98823.25;4372392;32;33545;-85
2023/12/24 04:05:16;;;;;;;;;;;;;;;4.54;74.63;98817.28;4366338;32;33778;-83
2023/12/24 04:07:45;;;;;;;;;;;;;;;4.68;74.17;98825.78;4368665;32;34009;-85
2023/12/24 04:10:17;;;;;;;;;;;;;;;4.66;74.51;98819.84;4368073;32;33252;-83
2023/12/24 04:12:46;;;;;;;;;;;;;;;4.56;74.20;98807.84;4365434;32;33558;-82
2023/12/24 04:15:15;;;;;;;;;;;;;;;4.60;74.16;98819.00;4368125;32;33927;-84
2023/12/24 04:17:44;;;;;;;;;;;;;;;4.56;74.51;98817.28;4368062;32;34366;-84
2023/12/24 04:20:14;;;;;;;;;;;;;;;4.54;74.35;98808.72;4377157;32;33169;-84
2023/12/24 04:22:47;;;;;;;;;;;;;;;4.75;73.89;98818.06;4373545;32;34461;-85
2023/12/24 04:25:20;;;;;;;;;;;;;;;4.73;73.89;98810.38;4372022;32;34598;-83
2023/12/24 04:27:49;;;;;;;;;;;;;;;4.59;74.76;98814.69;4371281;32;34743;-83
2023/12/24 04:30:23;;;;;;;;;;;;;;;4.33;75.54;98800.22;4376988;32;33627;-83
2023/12/24 04:32:51;;;;;;;;;;;;;;;4.57;74.24;98803.59;4376918;32;34046;-85
2023/12/24 04:35:21;;;;;;;;;;;;;;;4.52;74.81;98790.75;4371349;32;33602;-82
2023/12/24 04:37:52;;;;;;;;;;;;;;;4.67;74.27;98795.00;4371862;32;33115;-84
2023/12/24 04:40:24;;;;;;;;;;;;;;;4.32;75.15;98788.22;4376252;32;32964;-86
2023/12/24 04:42:52;;;;;;;;;;;;;;;4.55;74.61;98795.03;4376424;32;33415;-84
2023/12/24 04:45:23;;;;;;;;;;;;;;;4.44;75.09;98795.06;4371873;32;34199;-84
2023/12/24 04:47:59;;;;;;;;;;;;;;;4.41;74.96;98798.47;4371261;32;33163;-86
2023/12/24 04:50:34;;;;;;;;;;;;;;;4.42;75.10;98786.50;4377154;32;33503;-86
2023/12/24 04:53:05;;;;;;;;;;;;;;;4.66;74.06;98785.56;4373303;32;34405;-84
2023/12/24 04:55:38;;;;;;;;;;;;;;;4.70;74.01;98782.13;4371739;32;34041;-84
2023/12/24 04:58:07;;;;;;;;;;;;;;;4.69;73.82;98791.56;4371184;32;33609;-83
2023/12/24 05:00:39;;;;;;;;;;;;;;;4.55;74.78;98779.63;4376229;32;33082;-85
2023/12/24 05:03:09;;;;;;;;;;;;;;;4.53;74.46;98781.34;4371408;32;34548;-86
2023/12/24 05:05:40;;;;;;;;;;;;;;;4.68;74.08;98782.13;4376895;32;33976;-84
2023/12/24 05:08:14;;;;;;;;;;;;;;;4.66;73.98;98783.88;4376438;32;35803;-84
2023/12/24 05:10:44;;;;;;;;;;;;;;;4.63;74.02;98789.00;4373203;32;33200;-86
2023/12/24 05:13:12;;;;;;;;;;;;;;;4.67;73.94;98789.84;4365235;32;34057;-84
2023/12/24 05:15:43;;;;;;;;;;;;;;;4.85;72.75;98804.31;4365367;32;34223;-86
2023/12/24 05:18:13;;;;;;;;;;;;;;;4.80;72.94;98798.34;4376764;32;33910;-84
2023/12/24 05:20:42;;;;;;;;;;;;;;;4.76;73.06;98796.66;4372017;32;33237;-85
2023/12/24 05:23:11;;;;;;;;;;;;;;;4.71;73.57;98786.38;4371878;32;34534;-84
2023/12/24 05:25:40;;;;;;;;;;;;;;;4.64;73.78;98801.00;4371370;32;34020;-84
2023/12/24 05:28:10;;;;;;;;;;;;;;;4.87;72.56;98800.88;4376411;32;33777;-86
2023/12/24 05:30:41;;;;;;;;;;;;;;;4.73;72.74;98805.22;4376201;32;32808;-85
2023/12/24 05:33:10;;;;;;;;;;;;;;;4.47;74.00;98806.19;4361574;32;34445;-84
2023/12/24 05:35:42;;;;;;;;;;;;;;;4.35;74.78;98807.91;4356811;32;34259;-87
2023/12/24 05:38:10;;;;;;;;;;;;;;;4.52;74.42;98811.31;4357769;32;33356;-87
2023/12/24 05:40:39;;;;;;;;;;;;;;;4.57;73.86;98813.88;4361602;32;33092;-83
2023/12/24 05:43:10;;;;;;;;;;;;;;;4.56;74.51;98813.00;4360254;32;34784;-85
2023/12/24 05:45:39;;;;;;;;;;;;;;;4.81;73.28;98810.31;4356519;32;33919;-84
2023/12/24 05:48:11;;;;;;;;;;;;;;;4.86;73.01;98811.19;4355966;32;33383;-85
2023/12/24 05:50:40;;;;;;;;;;;;;;;4.68;73.79;98812.09;4361281;32;32540;-87
2023/12/24 05:53:10;;;;;;;;;;;;;;;4.75;74.76;98812.94;4366211;32;33447;-86
2023/12/24 05:55:38;;;;;;;;;;;;;;;4.52;75.62;98819.03;4370273;32;33938;-85
2023/12/24 05:58:14;;;;;;;;;;;;;;;4.41;75.74;98813.03;4368986;32;34166;-84
2023/12/24 06:00:49;;;;;;;;;;;;;;;4.31;76.28;98809.66;4369147;32;32853;-84
2023/12/24 06:03:17;;;;;;;;;;;;;;;4.40;75.36;98814.75;4361456;32;33808;-87
2023/12/24 06:05:49;;;;;;;;;;;;;;;4.52;75.06;98815.56;4367020;32;34595;-88
2023/12/24 06:08:18;;;;;;;;;;;;;;;4.54;75.27;98821.56;4357129;32;33599;-85
2023/12/24 06:10:48;;;;;;;;;;;;;;;4.60;74.77;98824.97;4371950;32;33919;-87
2023/12/24 06:13:17;;;;;;;;;;;;;;;4.39;76.04;98827.59;4358015;32;36342;-85
2023/12/24 06:15:46;;;;;;;;;;;;;;;4.44;75.63;98824.16;4370302;32;34477;-86
2023/12/24 06:18:21;;;;;;;;;;;;;;;4.51;75.62;98829.28;4361204;32;33746;-87
2023/12/24 06:20:50;;;;;;;;;;;;;;;4.37;75.62;98830.16;4371215;32;32781;-85
2023/12/24 06:23:20;;;;;;;;;;;;;;;4.49;74.71;98832.72;4370367;32;33964;-84
2023/12/24 06:25:54;;;;;;;;;;;;;;;4.57;75.04;98822.44;4376042;32;34593;-86
2023/12/24 06:28:24;;;;;;;;;;;;;;;4.66;74.32;98835.25;4369642;32;34484;-89
2023/12/24 06:30:52;;;;;;;;;;;;;;;4.49;75.46;98834.41;4376417;32;34123;-85
2023/12/24 06:33:21;;;;;;;;;;;;;;;4.73;74.72;98843.75;4370614;32;33894;-86
2023/12/24 06:35:50;;;;;;;;;;;;;;;4.81;74.29;98838.59;4371011;32;34103;-88
2023/12/24 06:38:27;;;;;;;;;;;;;;;4.84;74.31;98839.44;4376046;32;34459;-87
2023/12/24 06:40:55;;;;;;;;;;;;;;;4.89;74.14;98845.44;4374501;32;33251;-86
2023/12/24 06:43:25;;;;;;;;;;;;;;;4.89;74.04;98852.28;4370476;32;33670;-88
2023/12/24 06:45:54;;;;;;;;;;;;;;;4.76;74.68;98841.22;4370218;32;33413;-86
2023/12/24 06:48:26;;;;;;;;;;;;;;;4.78;74.83;98849.75;4375969;32;34002;-88
2023/12/24 06:50:54;;;;;;;;;;;;;;;4.79;74.97;98856.59;4371415;32;34222;-87
2023/12/24 06:53:25;;;;;;;;;;;;;;;4.98;73.68;98862.53;4369803;32;33936;-85
2023/12/24 06:55:54;;;;;;;;;;;;;;;4.70;75.19;98859.19;4370446;32;34974;-88
2023/12/24 06:58:29;;;;;;;;;;;;;;;4.78;75.03;98861.75;4370577;32;33609;-86
2023/12/24 07:01:05;;;;;;;;;;;;;;;5.12;73.85;98863.34;4376186;32;32986;-86
2023/12/24 07:03:34;;;;;;;;;;;;;;;4.98;75.00;98867.69;4370580;32;33920;-86
2023/12/24 07:06:04;;;;;;;;;;;;;;;5.19;74.31;98861.56;4370405;32;34794;-87
2023/12/24 07:08:33;;;;;;;;;;;;;;;5.12;74.67;98854.75;4368584;32;34204;-85
2023/12/24 07:11:10;;;;;;;;;;;;;;;5.29;74.48;98863.25;4374141;32;32551;-86
2023/12/24 07:13:40;;;;;;;;;;;;;;;5.37;74.40;98860.63;4374893;32;33941;-86
2023/12/24 07:16:11;;;;;;;;;;;;;;;5.47;74.49;98866.59;4370261;32;33733;-86
2023/12/24 07:18:40;;;;;;;;;;;;;;;5.31;75.55;98873.50;4367323;32;33922;-88
2023/12/24 07:21:10;;;;;;;;;;;;;;;5.37;75.62;98877.78;4374885;32;33921;-86
2023/12/24 07:23:38;;;;;;;;;;;;;;;5.25;76.31;98878.72;4374958;32;34010;-88
2023/12/24 07:26:08;;;;;;;;;;;;;;;5.52;75.52;98877.69;4358701;32;32459;-85
2023/12/24 07:28:37;;;;;;;;;;;;;;;5.32;76.03;98888.09;4367836;32;34203;-86
2023/12/24 07:31:06;;;;;;;;;;;;;;;5.45;76.21;98883.75;4373930;32;32712;-86
2023/12/24 07:33:38;;;;;;;;;;;;;;;5.50;75.83;98882.00;4372923;32;33075;-87
2023/12/24 07:36:09;;;;;;;;;;;;;;;5.44;76.19;98890.59;4374936;32;35246;-86
2023/12/24 07:38:39;;;;;;;;;;;;;;;5.37;75.69;98898.38;4368903;32;32822;-86
2023/12/24 07:41:19;;;;;;;;;;;;;;;5.30;76.17;98894.97;4371233;32;32987;-86
2023/12/24 07:43:47;;;;;;;;;;;;;;;5.34;76.01;98899.25;4368100;32;34155;-86
2023/12/24 07:46:18;;;;;;;;;;;;;;;5.46;75.53;98906.88;4361624;32;33519;-84
2023/12/24 07:48:46;;;;;;;;;;;;;;;5.41;75.05;98903.47;4369945;32;34422;-87
2023/12/24 07:51:15;;;;;;;;;;;;;;;5.45;75.06;98906.88;4369949;32;33875;-85
2023/12/24 07:53:44;;;;;;;;;;;;;;;5.49;74.78;98906.03;4351820;32;33302;-86
2023/12/24 07:56:13;;;;;;;;;;;;;;;5.65;74.90;98917.91;4369394;32;33943;-87
2023/12/24 07:58:50;;;;;;;;;;;;;;;5.57;75.58;98920.53;4370779;32;34214;-85
2023/12/24 08:01:24;;;;;;;;;;;;;;;5.61;76.32;98930.84;4370527;32;33292;-86
2023/12/24 08:03:52;;;;;;;;;;;;;;;5.91;76.32;98925.47;4370055;32;34828;-86
2023/12/24 08:06:22;;;;;;;;;;;;;;;5.93;76.99;98939.19;4368824;32;34789;-84
2023/12/24 08:08:59;;;;;;;;;;;;;;;5.88;77.47;98927.22;4374601;32;33864;-86
2023/12/24 08:11:29;;;;;;;;;;;;;;;5.82;77.23;98934.97;4374999;32;33294;-84
2023/12/24 08:13:57;;;;;;;;;;;;;;;5.94;76.95;98929.78;4355773;32;33532;-86
2023/12/24 08:16:31;;;;;;;;;;;;;;;5.92;76.88;98932.34;4369134;32;35305;-84
2023/12/24 08:19:00;;;;;;;;;;;;;;;5.94;76.60;98935.81;4371758;32;34903;-87
2023/12/24 08:21:35;;;;;;;;;;;;;;;5.95;75.92;98934.94;4363509;32;33528;-86
2023/12/24 08:24:08;;;;;;;;;;;;;;;6.03;75.65;98940.03;4369682;32;33445;-84
2023/12/24 08:26:36;;;;;;;;;;;;;;;5.89;76.09;98947.78;4367757;32;34629;-86
2023/12/24 08:29:05;;;;;;;;;;;;;;;5.90;75.66;98959.81;4369119;32;33140;-85
2023/12/24 08:31:38;;;;;;;;;;;;;;;5.91;76.39;98948.66;4369647;32;32608;-84
2023/12/24 08:34:07;;;;;;;;;;;;;;;6.43;74.78;98962.03;4374040;32;34972;-88
2023/12/24 08:36:44;;;;;;;;;;;;;;;6.40;75.48;98955.19;4369011;32;33788;-85
2023/12/24 08:39:13;;;;;;;;;;;;;;;6.37;75.39;98961.22;4368797;32;34201;-85
2023/12/24 08:41:41;;;;;;;;;;;;;;;6.24;76.70;98961.34;4369026;32;32451;-84
2023/12/24 08:44:16;;;;;;;;;;;;;;;6.35;76.47;98956.94;4374306;32;33488;-88
2023/12/24 08:46:48;;;;;;;;;;;;;;;6.30;77.24;98975.00;4367215;32;34290;-85
2023/12/24 08:49:20;;;;;;;;;;;;;;;6.40;77.09;98979.25;4368761;32;33661;-84
2023/12/24 08:51:48;;;;;;;;;;;;;;;6.36;77.75;98977.56;4369482;32;33993;-87
2023/12/24 08:54:17;;;;;;;;;;;;;;;6.54;77.16;98978.28;4368293;32;34137;-86
2023/12/24 08:56:45;;;;;;;;;;;;;;;6.57;77.24;98978.25;4371314;32;33734;-84
2023/12/24 08:59:15;;;;;;;;;;;;;;;6.63;76.58;98984.22;4370481;32;33209;-85
2023/12/24 09:01:49;;;;;;;;;;;;;;;6.61;77.54;98990.25;4374870;32;33960;-85
2023/12/24 09:04:18;;;;;;;;;;;;;;;6.81;76.81;98982.31;4369706;32;36146;-84
2023/12/24 09:06:47;;;;;;;;;;;;;;;6.76;77.69;98981.50;4375099;32;33778;-84
2023/12/24 09:09:18;;;;;;;;;;;;;;;6.83;77.66;98981.44;4373680;32;35349;-85
2023/12/24 09:11:47;;;;;;;;;;;;;;;7.03;76.84;98980.37;4373853;32;31914;-84
2023/12/24 09:14:23;;;;;;;;;;;;;;;6.93;77.94;98979.63;4369675;32;34830;-84
2023/12/24 09:16:53;;;;;;;;;;;;;;;7.10;77.79;98983.75;4367551;32;34992;-85
2023/12/24 09:19:23;;;;;;;;;;;;;;;7.22;77.94;98979.34;4375811;32;33679;-84
2023/12/24 09:21:52;;;;;;;;;;;;;;;7.37;77.23;98982.59;4370854;32;33176;-84
2023/12/24 09:24:26;;;;;;;;;;;;;;;7.35;78.10;98976.62;4369269;32;33494;-85
2023/12/24 09:26:55;;;;;;;;;;;;;;;7.39;78.25;98975.69;4364879;32;33784;-86
2023/12/24 09:29:26;;;;;;;;;;;;;;;7.67;76.30;98977.06;4371727;32;34217;-87
2023/12/24 09:31:56;;;;;;;;;;;;;;;7.46;77.84;98979.91;4375427;32;33906;-84
2023/12/24 09:34:25;;;;;;;;;;;;;;;7.51;78.06;98979.87;4369911;32;34783;-85
2023/12/24 09:36:55;;;;;;;;;;;;;;;7.51;78.32;98975.56;4369360;32;35089;-84
2023/12/24 09:39:26;;;;;;;;;;;;;;;7.64;78.28;98986.59;4372365;32;33654;-84
2023/12/24 09:41:58;;;;;;;;;;;;;;;7.73;78.33;98986.44;4375803;32;33231;-86
2023/12/24 09:44:30;;;;;;;;;;;;;;;7.88;77.74;98977.69;4368962;32;34618;-85
2023/12/24 09:47:00;;;;;;;;;;;;;;;7.94;76.71;98982.75;4368928;32;34351;-84
2023/12/24 09:49:30;;;;;;;;;;;;;;;8.11;75.05;99004.00;4372399;32;34652;-83
2023/12/24 09:52:00;;;;;;;;;;;;;;;8.09;75.30;98994.56;4369756;32;32721;-84
2023/12/24 09:54:30;;;;;;;;;;;;;;;7.96;76.72;98991.31;4375614;32;34935;-84
2023/12/24 09:57:00;;;;;;;;;;;;;;;8.30;73.95;98993.41;4369743;32;34266;-84
2023/12/24 09:59:29;;;;;;;;;;;;;;;8.44;72.64;99001.84;4357055;32;33248;-84
2023/12/24 10:02:00;;;;;;;;;;;;;;;8.29;73.64;98996.91;4370545;32;32596;-84
2023/12/24 10:04:28;;;;;;;;;;;;;;;8.03;75.47;98992.09;4375668;32;34837;-85
2023/12/24 10:07:00;;;;;;;;;;;;;;;8.09;75.13;99000.63;4369587;32;34900;-86
2023/12/24 10:09:42;;;;;;;;;;;;;;;8.16;74.66;98990.19;4369987;32;32663;-83
2023/12/24 10:12:11;;;;;;;;;;;;;;;8.06;75.32;98998.06;4370382;32;31920;-85
2023/12/24 10:14:49;;;;;;;;;;;;;;;8.21;74.40;98996.97;4368178;32;34420;-84
2023/12/24 10:17:20;;;;;;;;;;;;;;;7.97;75.76;98981.84;4372729;32;34209;-84
2023/12/24 10:19:49;;;;;;;;;;;;;;;8.16;75.47;98972.94;4368208;32;33804;-85
2023/12/24 10:22:18;;;;;;;;;;;;;;;8.27;74.68;98967.62;4370369;32;33649;-85
2023/12/24 10:24:47;;;;;;;;;;;;;;;8.32;74.92;98978.75;4368004;32;33040;-86
2023/12/24 10:27:16;;;;;;;;;;;;;;;8.28;75.56;98974.50;4360975;32;34776;-86
2023/12/24 10:29:48;;;;;;;;;;;;;;;8.41;74.67;98967.44;4372547;32;33660;-83
2023/12/24 10:32:17;;;;;;;;;;;;;;;8.42;75.05;98974.31;4372168;32;32870;-86
2023/12/24 10:34:52;;;;;;;;;;;;;;;8.58;73.42;98969.72;4368102;32;34612;-83
2023/12/24 10:37:22;;;;;;;;;;;;;;;8.45;72.15;98980.28;4367865;32;34095;-86
2023/12/24 10:39:51;;;;;;;;;;;;;;;8.52;71.65;98974.13;4375617;32;33358;-86
2023/12/24 10:42:20;;;;;;;;;;;;;;;8.31;72.17;98972.72;4372056;32;33635;-83
2023/12/24 10:44:58;;;;;;;;;;;;;;;8.32;71.61;98973.59;4367097;32;33916;-83
2023/12/24 10:47:27;;;;;;;;;;;;;;;8.43;71.43;98978.59;4368315;32;33661;-84
2023/12/24 10:49:57;;;;;;;;;;;;;;;8.54;69.67;98980.13;4372552;32;34189;-84
2023/12/24 10:52:29;;;;;;;;;;;;;;;8.61;69.43;98987.81;4375196;32;32845;-83
2023/12/24 10:54:58;;;;;;;;;;;;;;;8.37;69.94;98979.53;4364193;32;34843;-83
2023/12/24 10:57:29;;;;;;;;;;;;;;;8.39;69.92;98988.13;4365871;32;33502;-83
2023/12/24 11:00:07;;;;;;;;;;;;;;;8.03;70.89;98977.44;4371231;32;34489;-85
2023/12/24 11:02:43;;;;;;;;;;;;;;;8.21;70.29;98965.13;4370583;32;33795;-84
2023/12/24 11:05:17;;;;;;;;;;;;;;;8.32;69.88;98960.66;4375112;32;34533;-84
2023/12/24 11:07:49;;;;;;;;;;;;;;;8.43;69.20;98953.62;4365482;32;34389;-84
2023/12/24 11:10:36;;;;;;;;;;;;;;;8.26;70.03;98950.41;4367958;32;33980;-83
2023/12/24 11:13:11;;;;;;;;;;;;;;;8.36;70.02;98944.22;4362533;32;32461;-83
2023/12/24 11:15:42;;;;;;;;;;;;;;;8.54;69.06;98943.94;4365675;32;33448;-83
2023/12/24 11:18:11;;;;;;;;;;;;;;;8.39;69.47;98941.59;4365061;32;33228;-85
2023/12/24 11:20:44;;;;;;;;;;;;;;;8.39;69.79;98946.75;4371155;32;34323;-84
2023/12/24 11:23:16;;;;;;;;;;;;;;;8.45;69.73;98941.50;4365694;32;33718;-84
2023/12/24 11:25:45;;;;;;;;;;;;;;;8.50;70.02;98936.25;4364003;32;34176;-85
2023/12/24 11:28:14;;;;;;;;;;;;;;;8.52;70.06;98930.19;4362823;32;34335;-85
2023/12/24 11:31:09;;;;;;;;;;;;;;;8.58;70.37;98920.63;4367699;32;34071;-85
2023/12/24 11:33:44;;;;;;;;;;;;;;;8.67;69.85;98928.22;4370440;32;33675;-87
2023/12/24 11:36:17;;;;;;;;;;;;;;;8.68;70.05;98935.97;4370019;32;33942;-86
2023/12/24 11:38:46;;;;;;;;;;;;;;;8.73;70.05;98926.37;4370209;32;33692;-86
2023/12/24 11:41:19;;;;;;;;;;;;;;;8.75;69.97;98922.03;4372002;32;33649;-87
2023/12/24 11:43:55;;;;;;;;;;;;;;;8.83;69.36;98919.31;4375285;32;32624;-88
2023/12/24 11:46:24;;;;;;;;;;;;;;;8.78;69.42;98917.69;4368472;32;34859;-86
2023/12/24 11:48:56;;;;;;;;;;;;;;;8.80;69.69;98916.78;4368534;32;33488;-86
2023/12/24 11:51:26;;;;;;;;;;;;;;;8.76;70.35;98923.72;4370884;32;33887;-88
2023/12/24 11:54:00;;;;;;;;;;;;;;;8.83;70.45;98928.81;4368547;32;33467;-89
2023/12/24 11:56:28;;;;;;;;;;;;;;;8.98;70.12;98921.59;4364534;32;33513;-87
2023/12/24 11:59:01;;;;;;;;;;;;;;;9.04;70.10;98917.22;4369555;32;34225;-87
2023/12/24 12:01:30;;;;;;;;;;;;;;;9.08;70.23;98916.25;4368977;32;34052;-88
2023/12/24 12:04:00;;;;;;;;;;;;;;;9.01;70.84;98909.50;4369741;32;33447;-88
2023/12/24 12:06:30;;;;;;;;;;;;;;;9.13;70.58;98914.41;4370715;32;34477;-87
2023/12/24 12:09:06;;;;;;;;;;;;;;;9.06;71.07;98911.13;4354738;32;33217;-88
2023/12/24 12:11:34;;;;;;;;;;;;;;;9.09;71.12;98899.84;4373952;32;34445;-87
2023/12/24 12:14:03;;;;;;;;;;;;;;;9.27;69.81;98894.28;4370007;32;32923;-87
2023/12/24 12:16:31;;;;;;;;;;;;;;;9.12;69.45;98884.25;4373542;32;33496;-89
2023/12/24 12:19:01;;;;;;;;;;;;;;;9.10;69.87;98875.69;4356427;32;33977;-90
2023/12/24 12:21:32;;;;;;;;;;;;;;;9.09;70.19;98872.25;4373493;32;33529;-89
2023/12/24 12:24:01;;;;;;;;;;;;;;;9.26;69.54;98878.81;4369640;32;34411;-91
2023/12/24 12:26:32;;;;;;;;;;;;;;;9.28;69.70;98887.38;4358386;32;33846;-91
2023/12/24 12:29:08;;;;;;;;;;;;;;;9.00;70.49;98884.50;4376746;32;34120;-91
2023/12/24 12:31:36;;;;;;;;;;;;;;;8.83;70.61;98888.28;4373040;32;34678;-91
2023/12/24 12:34:11;;;;;;;;;;;;;;;9.09;69.83;98905.03;4371605;32;33429;-90
2023/12/24 12:36:41;;;;;;;;;;;;;;;9.13;69.02;98906.66;4371454;32;33726;-90
2023/12/24 12:39:10;;;;;;;;;;;;;;;9.07;69.33;98912.81;4371887;32;34929;-91
2023/12/24 12:41:39;;;;;;;;;;;;;;;8.95;69.76;98926.84;4377412;32;34573;-92
2023/12/24 12:44:31;;;;;;;;;;;;;;;8.92;69.69;98913.97;4371116;32;33092;-91
2023/12/24 12:47:01;;;;;;;;;;;;;;;8.96;69.33;98910.44;4371696;32;33370;-91
2023/12/24 12:49:31;;;;;;;;;;;;;;;8.91;69.50;98903.63;4357775;32;32380;-90
2023/12/24 12:52:08;;;;;;;;;;;;;;;8.91;69.74;98907.06;4371709;32;34202;-92
2023/12/24 12:54:39;;;;;;;;;;;;;;;8.84;69.72;98894.28;4353388;32;32959;-91
2023/12/24 12:57:07;;;;;;;;;;;;;;;8.88;69.51;98894.22;4342579;32;33222;-90
2023/12/24 12:59:39;;;;;;;;;;;;;;;8.90;69.23;98886.44;4341743;32;33262;-91
2023/12/24 13:02:08;;;;;;;;;;;;;;;9.08;68.71;98883.47;4358816;32;33739;-90
2023/12/24 13:04:39;;;;;;;;;;;;;;;8.87;69.42;98884.75;4361990;32;33906;-91
2023/12/24 13:07:09;;;;;;;;;;;;;;;9.00;68.88;98887.09;4342775;32;34040;-92
2023/12/24 13:09:42;;;;;;;;;;;;;;;8.91;68.63;98894.13;4357655;32;33853;-92
2023/12/24 13:12:11;;;;;;;;;;;;;;;9.10;68.18;98896.37;4358589;32;33472;-91
2023/12/24 13:15:19;;;;;;;;;;;;;;;8.89;68.81;98897.63;4344091;32;33282;-90
2023/12/24 13:17:55;;;;;;;;;;;;;;;8.96;68.63;98901.81;4356474;32;34715;-90